createdAt,value
2018-04-09T00:02:10.607Z,8.47
2018-04-09T00:04:38.120Z,11.50
2018-04-09T00:07:05.653Z,8.13
2018-04-09T00:09:33.168Z,9.90
2018-04-09T00:12:00.960Z,7.47
2018-04-09T00:14:28.469Z,8.97
2018-04-09T00:16:56.824Z,6.80
2018-04-09T00:19:24.349Z,7.10
2018-04-09T00:21:51.888Z,6.97
2018-04-09T00:24:19.405Z,7.60
2018-04-09T00:26:47.726Z,6.93
2018-04-09T00:29:15.242Z,8.63
2018-04-09T00:31:43.545Z,6.03
2018-04-09T00:34:11.052Z,6.33
2018-04-09T00:36:38.593Z,7.80
2018-04-09T00:39:06.166Z,6.70
2018-04-09T00:41:33.993Z,7.23
2018-04-09T00:44:01.539Z,7.30
2018-04-09T00:46:29.075Z,7.50
2018-04-09T00:48:56.584Z,8.57
2018-04-09T00:51:24.128Z,7.43
2018-04-09T00:53:59.483Z,5.80
2018-04-09T00:56:27.017Z,6.87
2018-04-09T00:58:54.532Z,9.30
2018-04-09T01:01:22.849Z,7.90
2018-04-09T01:03:50.368Z,7.63
2018-04-09T01:06:17.917Z,12.33
2018-04-09T01:08:45.470Z,11.33
2018-04-09T01:11:13.790Z,11.10
2018-04-09T01:13:41.304Z,10.47
2018-04-09T01:16:09.581Z,8.13
2018-04-09T01:18:37.880Z,6.53
2018-04-09T01:21:05.420Z,9.50
2018-04-09T01:23:32.972Z,9.50
2018-04-09T01:26:00.552Z,5.83
2018-04-09T01:28:28.096Z,7.00
2018-04-09T01:30:55.880Z,7.00
2018-04-09T01:33:23.449Z,7.00
2018-04-09T01:35:50.964Z,6.93
2018-04-09T01:38:18.509Z,7.53
2018-04-09T01:40:46.785Z,6.93
2018-04-09T01:43:15.090Z,6.00
2018-04-09T01:45:42.967Z,6.30
2018-04-09T01:48:10.510Z,6.40
2018-04-09T01:50:38.021Z,8.97
2018-04-09T01:53:06.365Z,7.77
2018-04-09T01:55:34.217Z,8.03
2018-04-09T01:58:01.778Z,10.73
2018-04-09T02:00:29.539Z,8.23
2018-04-09T02:02:57.084Z,7.87
2018-04-09T02:05:24.602Z,9.13
2018-04-09T02:07:52.904Z,6.10
2018-04-09T02:10:20.427Z,7.87
2018-04-09T02:12:48.730Z,7.40
2018-04-09T02:15:16.259Z,7.63
2018-04-09T02:17:44.571Z,8.50
2018-04-09T02:20:12.081Z,8.47
2018-04-09T02:22:40.725Z,6.80
2018-04-09T02:25:08.480Z,7.50
2018-04-09T02:27:36.010Z,7.50
2018-04-09T02:30:03.535Z,8.50
2018-04-09T02:32:31.069Z,7.43
2018-04-09T02:34:58.589Z,8.10
2018-04-09T02:37:26.139Z,8.90
2018-04-09T02:39:53.652Z,8.47
2018-04-09T02:42:21.191Z,9.03
2018-04-09T02:44:48.701Z,6.57
2018-04-09T02:47:16.255Z,10.20
2018-04-09T02:52:18.579Z,7.43
2018-04-09T02:54:46.165Z,6.27
2018-04-09T02:57:13.674Z,8.80
2018-04-09T02:59:41.206Z,8.30
2018-04-09T03:02:08.747Z,7.90
2018-04-09T03:04:37.276Z,8.93
2018-04-09T03:07:04.838Z,9.20
2018-04-09T03:09:32.372Z,9.77
2018-04-09T03:12:00.155Z,7.67
2018-04-09T03:14:27.672Z,9.53
2018-04-09T03:16:55.199Z,6.80
2018-04-09T03:19:22.708Z,9.00
2018-04-09T03:21:50.483Z,8.60
2018-04-09T03:24:18.026Z,7.17
2018-04-09T03:26:45.544Z,8.00
2018-04-09T03:29:14.177Z,8.13
2018-04-09T03:31:41.706Z,11.10
2018-04-09T03:34:09.242Z,7.20
2018-04-09T03:36:37.513Z,8.30
2018-04-09T03:39:05.826Z,7.90
2018-04-09T03:41:33.352Z,7.73
2018-04-09T03:44:01.705Z,11.03
2018-04-09T03:46:29.218Z,8.70
2018-04-09T03:48:56.758Z,7.10
2018-04-09T03:51:24.268Z,9.20
2018-04-09T03:53:51.812Z,10.10
2018-04-09T03:56:19.316Z,9.40
2018-04-09T03:58:46.847Z,8.67
2018-04-09T04:01:14.354Z,8.27
2018-04-09T04:03:41.905Z,9.73
2018-04-09T04:06:09.427Z,7.57
2018-04-09T04:08:37.758Z,8.67
2018-04-09T04:11:05.277Z,10.23
2018-04-09T04:13:32.825Z,11.10
2018-04-09T04:16:13.428Z,8.70
2018-04-09T04:18:52.960Z,10.63
2018-04-09T04:21:32.401Z,8.20
2018-04-09T04:23:59.929Z,10.20
2018-04-09T04:26:27.440Z,10.27
2018-04-09T04:28:54.980Z,7.60
2018-04-09T04:31:22.496Z,8.40
2018-04-09T04:33:50.281Z,8.77
2018-04-09T04:36:17.795Z,10.73
2018-04-09T04:38:46.094Z,9.23
2018-04-09T04:41:13.606Z,7.70
2018-04-09T04:43:41.140Z,9.00
2018-04-09T04:46:08.657Z,13.00
2018-04-09T04:48:36.198Z,9.33
2018-04-09T04:51:03.717Z,9.17
2018-04-09T04:53:31.258Z,11.47
2018-04-09T04:55:58.776Z,9.00
2018-04-09T04:58:26.320Z,10.10
2018-04-09T05:00:54.654Z,10.10
2018-04-09T05:03:22.200Z,9.90
2018-04-09T05:05:50.061Z,12.50
2018-04-09T05:08:17.929Z,9.13
2018-04-09T05:10:45.682Z,8.50
2018-04-09T05:13:13.213Z,9.07
2018-04-09T05:15:41.001Z,11.37
2018-04-09T05:18:08.760Z,10.33
2018-04-09T05:20:36.295Z,12.87
2018-04-09T05:23:03.842Z,9.07
2018-04-09T05:25:31.367Z,10.50
2018-04-09T05:27:58.913Z,10.87
2018-04-09T05:30:26.431Z,12.53
2018-04-09T05:32:53.973Z,11.43
2018-04-09T05:35:21.509Z,9.50
2018-04-09T05:37:49.830Z,10.10
2018-04-09T05:40:17.438Z,10.50
2018-04-09T05:42:45.716Z,12.70
2018-04-09T05:45:13.273Z,8.43
2018-04-09T05:47:41.569Z,9.70
2018-04-09T05:50:09.117Z,10.10
2018-04-09T05:52:36.668Z,12.70
2018-04-09T05:55:04.982Z,10.47
2018-04-09T05:57:32.845Z,16.17
2018-04-09T06:00:00.717Z,9.30
2018-04-09T06:02:28.241Z,10.57
2018-04-09T06:04:55.792Z,10.00
2018-04-09T06:07:23.316Z,11.47
2018-04-09T06:09:50.861Z,11.93
2018-04-09T06:12:18.380Z,10.87
2018-04-09T06:14:45.936Z,10.87
2018-04-09T06:17:13.710Z,8.83
2018-04-09T06:19:41.257Z,9.27
2018-04-09T06:22:08.791Z,11.60
2018-04-09T06:24:36.314Z,10.00
2018-04-09T06:27:04.142Z,10.03
2018-04-09T06:29:31.663Z,10.97
2018-04-09T06:31:59.211Z,12.50
2018-04-09T06:34:26.746Z,13.30
2018-04-09T06:36:54.359Z,14.60
2018-04-09T06:39:21.914Z,12.53
2018-04-09T06:41:49.709Z,11.70
2018-04-09T06:44:17.257Z,12.23
2018-04-09T06:46:44.810Z,9.07
2018-04-09T06:49:12.333Z,10.87
2018-04-09T06:51:40.125Z,11.70
2018-04-09T06:54:07.673Z,11.77
2018-04-09T06:56:35.214Z,10.50
2018-04-09T06:59:02.730Z,9.20
2018-04-09T07:01:30.275Z,9.10
2018-04-09T07:03:58.661Z,10.30
2018-04-09T07:06:26.243Z,11.03
2018-04-09T07:08:54.143Z,9.23
2018-04-09T07:11:22.453Z,12.40
2018-04-09T07:13:50.282Z,10.70
2018-04-09T07:16:18.594Z,11.10
2018-04-09T07:18:46.420Z,10.90
2018-04-09T07:21:13.968Z,9.97
2018-04-09T07:23:41.500Z,9.00
2018-04-09T07:26:09.292Z,9.93
2018-04-09T07:28:36.817Z,14.67
2018-04-09T07:31:04.366Z,11.37
2018-04-09T07:33:32.673Z,11.30
2018-04-09T07:36:00.189Z,9.07
2018-04-09T07:38:28.508Z,11.00
2018-04-09T07:40:56.042Z,11.50
2018-04-09T07:43:23.581Z,11.03
2018-04-09T07:45:51.903Z,10.33
2018-04-09T07:48:19.464Z,9.30
2018-04-09T07:50:46.993Z,10.53
2018-04-09T07:53:14.538Z,11.50
2018-04-09T07:55:42.106Z,11.40
2018-04-09T07:58:09.669Z,9.73
2018-04-09T08:00:37.184Z,9.30
2018-04-09T08:03:04.724Z,11.13
2018-04-09T08:05:32.239Z,8.40
2018-04-09T08:07:59.812Z,14.50
2018-04-09T08:10:27.675Z,8.70
2018-04-09T08:12:55.239Z,17.90
2018-04-09T08:15:22.794Z,9.43
2018-04-09T08:17:50.318Z,11.20
2018-04-09T08:20:17.860Z,9.30
2018-04-09T08:22:45.663Z,9.73
2018-04-09T08:25:13.201Z,9.00
2018-04-09T08:27:40.726Z,9.30
2018-04-09T08:30:09.357Z,13.00
2018-04-09T08:32:36.879Z,9.80
2018-04-09T08:35:04.447Z,10.50
2018-04-09T08:37:31.974Z,9.60
2018-04-09T08:40:00.288Z,7.80
2018-04-09T08:42:27.829Z,11.50
2018-04-09T08:44:55.389Z,11.80
2018-04-09T08:47:22.926Z,8.93
2018-04-09T08:49:50.504Z,10.90
2018-04-09T08:52:18.036Z,11.10
2018-04-09T08:54:46.774Z,14.23
2018-04-09T08:57:14.293Z,14.67
2018-04-09T08:59:41.842Z,15.43
2018-04-09T09:02:10.126Z,12.50
2018-04-09T09:04:37.675Z,11.30
2018-04-09T09:07:05.194Z,8.87
2018-04-09T09:09:32.758Z,11.50
2018-04-09T09:12:00.274Z,8.60
2018-04-09T09:14:27.830Z,8.23
2018-04-09T09:16:55.346Z,9.90
2018-04-09T09:19:23.646Z,9.43
2018-04-09T09:21:51.155Z,9.37
2018-04-09T09:24:18.985Z,8.80
2018-04-09T09:26:46.505Z,11.77
2018-04-09T09:29:14.066Z,8.43
2018-04-09T09:31:41.591Z,12.87
2018-04-09T09:34:09.418Z,7.43
2018-04-09T09:36:37.281Z,11.47
2018-04-09T09:39:04.821Z,10.23
2018-04-09T09:41:32.607Z,8.50
2018-04-09T09:44:00.475Z,7.53
2018-04-09T09:46:27.995Z,12.50
2018-04-09T09:48:55.566Z,8.60
2018-04-09T09:51:23.342Z,10.43
2018-04-09T09:53:50.893Z,9.83
2018-04-09T09:56:18.657Z,8.83
2018-04-09T09:58:46.208Z,23.50
2018-04-09T10:01:13.751Z,45.07
2018-04-09T10:03:41.314Z,6.00
2018-04-09T10:06:09.088Z,10.10
2018-04-09T10:08:36.625Z,5.47
2018-04-09T10:11:04.172Z,5.27
2018-04-09T10:13:31.680Z,6.00
2018-04-09T10:15:59.233Z,5.60
2018-04-09T10:18:26.756Z,6.10
2018-04-09T10:20:54.534Z,6.07
2018-04-09T10:23:22.055Z,6.90
2018-04-09T10:25:49.639Z,7.23
2018-04-09T10:28:17.174Z,8.17
2018-04-09T10:30:44.718Z,9.10
2018-04-09T10:33:13.009Z,9.93
2018-04-09T10:35:40.588Z,5.90
2018-04-09T10:38:08.353Z,8.00
2018-04-09T10:40:35.899Z,7.33
2018-04-09T10:43:03.408Z,5.53
2018-04-09T10:45:31.710Z,5.23
2018-04-09T10:47:59.502Z,7.20
2018-04-09T10:50:27.042Z,5.63
2018-04-09T10:52:54.570Z,6.00
2018-04-09T10:55:23.197Z,6.70
2018-04-09T10:57:50.959Z,6.30
2018-04-09T11:00:18.528Z,6.73
2018-04-09T11:02:46.144Z,5.80
2018-04-09T11:05:13.742Z,6.07
2018-04-09T11:07:41.318Z,7.03
2018-04-09T11:10:09.158Z,7.70
2018-04-09T11:12:36.669Z,9.53
2018-04-09T11:15:04.992Z,5.80
2018-04-09T11:17:32.500Z,6.60
2018-04-09T11:20:00.082Z,6.17
2018-04-09T11:22:27.602Z,6.67
2018-04-09T11:24:56.237Z,7.57
2018-04-09T11:27:23.758Z,7.93
2018-04-09T11:29:51.301Z,5.87
2018-04-09T11:32:19.613Z,5.80
2018-04-09T11:34:47.156Z,5.70
2018-04-09T11:37:14.689Z,7.40
2018-04-09T11:39:43.165Z,6.30
2018-04-09T11:42:11.449Z,8.63
2018-04-09T11:44:39.761Z,9.30
2018-04-09T11:47:07.275Z,6.70
2018-04-09T11:49:35.905Z,5.80
2018-04-09T11:52:03.432Z,9.97
2018-04-09T11:54:30.971Z,6.47
2018-04-09T11:56:59.500Z,6.30
2018-04-09T11:59:27.036Z,5.33
2018-04-09T12:01:54.556Z,6.63
2018-04-09T12:04:22.895Z,5.03
2018-04-09T12:06:50.402Z,6.50
2018-04-09T12:09:18.700Z,6.00
2018-04-09T12:11:46.245Z,6.17
2018-04-09T12:14:14.031Z,12.80
2018-04-09T12:16:41.575Z,9.77
2018-04-09T12:19:09.357Z,7.90
2018-04-09T12:21:36.908Z,5.60
2018-04-09T12:24:04.424Z,5.10
2018-04-09T12:26:32.723Z,5.80
2018-04-09T12:29:00.509Z,8.27
2018-04-09T12:31:28.054Z,6.77
2018-04-09T12:33:56.023Z,6.73
2018-04-09T12:36:23.995Z,6.43
2018-04-09T12:38:51.511Z,5.40
2018-04-09T12:41:19.052Z,4.20
2018-04-09T12:43:47.343Z,4.87
2018-04-09T12:46:15.139Z,5.10
2018-04-09T12:48:43.003Z,4.97
2018-04-09T12:51:10.534Z,4.67
2018-04-09T12:53:38.051Z,5.13
2018-04-09T12:56:05.879Z,5.97
2018-04-09T12:58:33.636Z,5.00
2018-04-09T13:03:27.858Z,4.67
2018-04-09T13:05:55.400Z,4.40
2018-04-09T13:08:23.245Z,5.10
2018-04-09T13:10:50.785Z,5.90
2018-04-09T13:13:18.297Z,5.63
2018-04-09T13:15:45.866Z,4.70
2018-04-09T13:18:14.146Z,5.70
2018-04-09T13:20:42.773Z,5.30
2018-04-09T13:23:10.279Z,5.97
2018-04-09T13:25:38.605Z,4.13
2018-04-09T13:28:06.126Z,4.33
2018-04-09T13:30:33.664Z,4.43
2018-04-09T13:33:01.964Z,4.70
2018-04-09T13:35:29.504Z,4.03
2018-04-09T13:37:57.778Z,4.27
2018-04-09T13:40:26.079Z,4.27
2018-04-09T13:42:53.586Z,7.37
2018-04-09T13:45:21.139Z,3.60
2018-04-09T13:47:48.709Z,4.77
2018-04-09T13:50:17.011Z,6.30
2018-04-09T13:52:44.522Z,4.97
2018-04-09T13:55:12.055Z,4.50
2018-04-09T13:57:39.568Z,6.23
2018-04-09T14:00:07.881Z,4.40
2018-04-09T14:02:35.390Z,4.63
2018-04-09T14:05:02.947Z,4.20
2018-04-09T14:07:31.222Z,5.03
2018-04-09T14:09:59.852Z,5.87
2018-04-09T14:12:27.370Z,5.10
2018-04-09T14:14:55.993Z,7.50
2018-04-09T14:17:23.536Z,6.03
2018-04-09T14:19:51.075Z,4.90
2018-04-09T14:22:18.602Z,7.10
2018-04-09T14:24:46.929Z,5.20
2018-04-09T14:27:14.695Z,6.10
2018-04-09T14:29:42.255Z,5.37
2018-04-09T14:32:09.772Z,5.63
2018-04-09T14:34:38.060Z,5.40
2018-04-09T14:37:05.612Z,6.83
2018-04-09T14:39:33.142Z,4.83
2018-04-09T14:42:00.681Z,6.63
2018-04-09T14:44:28.195Z,4.23
2018-04-09T14:46:55.971Z,5.23
2018-04-09T14:49:23.736Z,5.00
2018-04-09T14:51:51.274Z,4.40
2018-04-09T14:54:18.790Z,4.00
2018-04-09T14:56:47.101Z,4.03
2018-04-09T14:59:14.615Z,3.93
2018-04-09T15:01:42.156Z,5.80
2018-04-09T15:04:09.995Z,6.73
2018-04-09T15:06:37.535Z,5.50
2018-04-09T15:09:05.055Z,3.67
2018-04-09T15:11:33.690Z,5.17
2018-04-09T15:14:01.206Z,9.40
2018-04-09T15:16:29.507Z,4.67
2018-04-09T15:18:57.026Z,8.70
2018-04-09T15:21:25.353Z,4.47
2018-04-09T15:23:52.869Z,4.60
2018-04-09T15:26:21.494Z,5.40
2018-04-09T15:28:49.776Z,4.70
2018-04-09T15:31:17.316Z,7.90
2018-04-09T15:33:44.974Z,5.40
2018-04-09T15:36:12.542Z,6.80
2018-04-09T15:38:40.524Z,7.30
2018-04-09T15:41:08.377Z,4.63
2018-04-09T15:43:35.891Z,6.00
2018-04-09T15:46:03.455Z,6.63
2018-04-09T15:48:30.977Z,4.10
2018-04-09T15:50:59.304Z,6.80
2018-04-09T15:53:26.820Z,5.23
2018-04-09T15:55:55.124Z,9.37
2018-04-09T15:58:22.643Z,5.33
2018-04-09T16:00:51.278Z,3.67
2018-04-09T16:03:18.794Z,4.30
2018-04-09T16:05:47.099Z,6.50
2018-04-09T16:08:14.623Z,8.63
2018-04-09T16:10:42.904Z,4.80
2018-04-09T16:13:10.705Z,4.57
2018-04-09T16:15:38.226Z,7.37
2018-04-09T16:18:06.577Z,5.93
2018-04-09T16:20:34.103Z,4.73
2018-04-09T16:23:01.648Z,6.80
2018-04-09T16:25:29.163Z,4.53
2018-04-09T16:27:57.485Z,7.00
2018-04-09T16:30:25.770Z,6.57
2018-04-09T16:32:53.319Z,7.47
2018-04-09T16:35:20.882Z,4.73
2018-04-09T16:37:48.728Z,7.23
2018-04-09T16:40:16.234Z,9.53
2018-04-09T16:42:44.548Z,4.83
2018-04-09T16:45:12.066Z,6.70
2018-04-09T16:47:40.379Z,6.90
2018-04-09T16:50:07.895Z,6.40
2018-04-09T16:52:36.205Z,6.63
2018-04-09T16:55:03.728Z,6.00
2018-04-09T16:57:32.037Z,5.73
2018-04-09T16:59:59.556Z,4.40
2018-04-09T17:02:27.879Z,6.90
2018-04-09T17:04:55.747Z,5.27
2018-04-09T17:07:23.259Z,6.80
2018-04-09T17:09:51.559Z,8.40
2018-04-09T17:12:19.334Z,9.03
2018-04-09T17:14:46.871Z,8.57
2018-04-09T17:17:14.482Z,9.50
2018-04-09T17:19:42.047Z,9.80
2018-04-09T17:22:09.568Z,5.23
2018-04-09T17:24:37.103Z,8.10
2018-04-09T17:27:04.619Z,7.50
2018-04-09T17:29:32.167Z,5.73
2018-04-09T17:31:59.694Z,5.63
2018-04-09T17:34:27.245Z,9.10
2018-04-09T17:36:54.759Z,5.90
2018-04-09T17:39:23.067Z,12.47
2018-04-09T17:41:50.605Z,6.50
2018-04-09T17:44:18.138Z,9.30
2018-04-09T17:46:46.690Z,5.30
2018-04-09T17:49:14.246Z,9.10
2018-04-09T17:51:41.783Z,6.83
2018-04-09T17:54:09.652Z,6.90
2018-04-09T17:56:37.411Z,6.37
2018-04-09T17:59:04.918Z,6.33
2018-04-09T18:01:33.220Z,9.40
2018-04-09T18:04:00.762Z,7.80
2018-04-09T18:06:28.306Z,7.40
2018-04-09T18:08:56.583Z,9.40
2018-04-09T18:11:24.890Z,6.90
2018-04-09T18:13:52.403Z,6.20
2018-04-09T18:16:21.037Z,6.50
2018-04-09T18:18:48.573Z,5.80
2018-04-09T18:21:16.123Z,7.67
2018-04-09T18:23:43.635Z,5.63
2018-04-09T18:26:11.169Z,7.60
2018-04-09T18:28:38.695Z,10.37
2018-04-09T18:31:06.235Z,5.83
2018-04-09T18:33:34.510Z,8.60
2018-04-09T18:36:02.831Z,8.63
2018-04-09T18:38:30.596Z,9.80
2018-04-09T18:40:58.140Z,8.93
2018-04-09T18:43:25.677Z,12.73
2018-04-09T18:45:53.211Z,13.70
2018-04-09T18:48:21.567Z,11.53
2018-04-09T18:50:49.095Z,7.37
2018-04-09T18:53:16.619Z,7.30
2018-04-09T18:55:44.188Z,7.10
2018-04-09T18:58:11.739Z,10.90
2018-04-09T19:00:39.280Z,9.33
2018-04-09T19:03:06.971Z,11.53
2018-04-09T19:05:34.559Z,13.70
2018-04-09T19:08:02.395Z,19.60
2018-04-09T19:10:29.910Z,8.03
2018-04-09T19:12:58.212Z,15.87
2018-04-09T19:15:25.732Z,8.73
2018-04-09T19:17:54.031Z,7.87
2018-04-09T19:20:21.556Z,10.13
2018-04-09T19:22:49.091Z,9.47
2018-04-09T19:25:16.608Z,9.07
2018-04-09T19:27:44.169Z,11.50
2018-04-09T19:30:11.911Z,10.80
2018-04-09T19:32:39.527Z,10.80
2018-04-09T19:35:08.890Z,11.27
2018-04-09T19:37:42.280Z,10.93
2018-04-09T19:40:15.336Z,10.73
2018-04-09T19:42:43.870Z,11.47
2018-04-09T19:45:11.406Z,13.03
2018-04-09T19:47:39.183Z,11.13
2018-04-09T19:50:06.715Z,13.00
2018-04-09T19:52:34.275Z,13.87
2018-04-09T19:55:01.791Z,14.43
2018-04-09T19:57:30.106Z,11.43
2018-04-09T19:59:57.990Z,22.30
2018-04-09T20:02:25.533Z,14.13
2018-04-09T20:04:53.055Z,17.40
2018-04-09T20:07:21.381Z,11.33
2018-04-09T20:09:48.903Z,21.40
2018-04-09T20:12:16.447Z,28.17
2018-04-09T20:14:44.739Z,15.10
2018-04-09T20:17:12.300Z,12.90
2018-04-09T20:19:39.839Z,17.97
2018-04-09T20:22:07.418Z,16.83
2018-04-09T20:24:35.246Z,12.40
2018-04-09T20:27:03.558Z,11.77
2018-04-09T20:29:31.075Z,14.93
2018-04-09T20:31:59.411Z,14.30
2018-04-09T20:34:26.946Z,13.00
2018-04-09T20:36:54.488Z,14.13
2018-04-09T20:39:22.301Z,16.33
2018-04-09T20:41:49.841Z,21.40
2018-04-09T20:44:17.431Z,19.43
2018-04-09T20:46:45.262Z,21.10
2018-04-09T20:49:13.019Z,15.73
2018-04-09T20:51:40.580Z,16.00
2018-04-09T20:54:08.091Z,13.77
2018-04-09T20:56:35.667Z,20.67
2018-04-09T20:59:03.187Z,14.73
2018-04-09T21:01:31.503Z,19.10
2018-04-09T21:03:59.016Z,18.53
2018-04-09T21:06:26.567Z,17.57
2018-04-09T21:08:54.089Z,16.20
2018-04-09T21:11:21.636Z,17.67
2018-04-09T21:13:49.154Z,17.50
2018-04-09T21:16:17.434Z,16.73
2018-04-09T21:18:46.059Z,16.27
2018-04-09T21:21:13.579Z,18.10
2018-04-09T21:23:41.383Z,16.70
2018-04-09T21:26:08.920Z,17.57
2018-04-09T21:28:36.458Z,29.17
2018-04-09T21:31:03.979Z,16.83
2018-04-09T21:33:31.514Z,17.30
2018-04-09T21:35:59.061Z,16.93
2018-04-09T21:38:26.919Z,15.10
2018-04-09T21:40:54.435Z,16.60
2018-04-09T21:43:22.769Z,18.93
2018-04-09T21:45:50.293Z,15.10
2018-04-09T21:48:17.881Z,15.67
2018-04-09T21:50:45.400Z,14.93
2018-04-09T21:53:13.040Z,15.03
2018-04-09T21:55:40.683Z,17.47
2018-04-09T21:58:08.286Z,20.20
2018-04-09T22:00:35.810Z,17.40
2018-04-09T22:03:04.115Z,23.23
2018-04-09T22:05:31.631Z,15.67
2018-04-09T22:07:59.947Z,14.87
2018-04-09T22:10:27.551Z,16.97
2018-04-09T22:12:55.094Z,15.63
2018-04-09T22:15:22.934Z,20.00
2018-04-09T22:17:50.480Z,15.43
2018-04-09T22:20:18.014Z,15.93
2018-04-09T22:22:45.554Z,20.30
2018-04-09T22:25:13.841Z,20.17
2018-04-09T22:27:41.646Z,19.90
2018-04-09T22:30:09.163Z,15.47
2018-04-09T22:32:36.721Z,16.97
2018-04-09T22:35:04.517Z,14.30
2018-04-09T22:37:32.072Z,15.40
2018-04-09T22:39:59.600Z,16.33
2018-04-09T22:42:27.148Z,16.27
2018-04-09T22:44:54.676Z,16.53
2018-04-09T22:47:22.218Z,15.60
2018-04-09T22:49:49.739Z,13.80
2018-04-09T22:52:17.283Z,16.27
2018-04-09T22:54:44.798Z,15.73
2018-04-09T22:57:12.340Z,13.93
2018-04-09T22:59:39.875Z,12.97
2018-04-09T23:02:07.411Z,20.43
2018-04-09T23:04:34.955Z,13.80
2018-04-09T23:07:03.271Z,12.60
2018-04-09T23:09:30.792Z,13.13
2018-04-09T23:11:58.588Z,13.27
2018-04-09T23:14:26.348Z,18.73
2018-04-09T23:16:53.883Z,12.40
2018-04-09T23:19:21.669Z,19.40
2018-04-09T23:21:49.526Z,17.03
2018-04-09T23:24:17.073Z,16.30
2018-04-09T23:26:44.606Z,18.33
2018-04-09T23:29:12.149Z,18.37
2018-04-09T23:31:40.430Z,15.10
2018-04-09T23:34:08.743Z,15.87
2018-04-09T23:36:36.290Z,17.73
2018-04-09T23:39:03.830Z,13.70
2018-04-09T23:41:31.354Z,13.30
2018-04-09T23:43:58.890Z,13.60
2018-04-09T23:46:26.630Z,16.57
2018-04-09T23:48:54.208Z,12.67
2018-04-09T23:51:21.743Z,14.17
2018-04-09T23:53:49.283Z,14.90
2018-04-09T23:56:16.803Z,15.83
2018-04-09T23:58:45.117Z,13.67
